Time;durP1;ratioP1;P1;durP2;ratioP2;P2;SDS_P1;SDS_P2;PMS_P1;PMS_P2;Temp;Humidity;BMP_temperature;BMP_pressure;BME280_temperature;BME280_humidity;BME280_pressure;Samples;Min_cycle;Max_cycle;Signal;HPM_P1;HPM_P2
2021/12/09 00:00:58;;;;;;;13.75;6.97;;;2.60;99.90;;;;;;5034394;28;20033;-58
2021/12/09 00:03:24;;;;;;;18.52;7.30;;;2.70;99.90;;;;;;5034758;28;20411;-58
2021/12/09 00:05:50;;;;;;;14.52;7.50;;;2.60;99.90;;;;;;5034441;28;20042;-58
2021/12/09 00:08:15;;;;;;;21.70;8.57;;;2.60;99.90;;;;;;5035759;28;20041;-58
2021/12/09 00:10:42;;;;;;;15.95;8.43;;;2.50;99.90;;;;;;5034353;28;20090;-58
2021/12/09 00:13:07;;;;;;;14.25;6.97;;;2.60;99.90;;;;;;5035440;28;20053;-58
2021/12/09 00:15:34;;;;;;;15.30;8.13;;;2.50;99.90;;;;;;5034110;28;20038;-58
2021/12/09 00:17:59;;;;;;;12.52;6.93;;;2.70;99.90;;;;;;5035628;28;20037;-58
2021/12/09 00:20:25;;;;;;;16.33;7.68;;;2.80;99.90;;;;;;5035440;28;20044;-58
2021/12/09 00:22:50;;;;;;;16.73;9.00;;;2.70;99.90;;;;;;5035574;28;20479;-58
2021/12/09 00:25:16;;;;;;;15.60;8.35;;;2.60;99.90;;;;;;5035187;28;20095;-58
2021/12/09 00:27:42;;;;;;;13.32;7.38;;;2.70;99.90;;;;;;5017490;28;20053;-57
2021/12/09 00:30:10;;;;;;;18.75;7.25;;;2.60;99.90;;;;;;5033818;28;20494;-58
2021/12/09 00:32:37;;;;;;;19.08;8.70;;;2.60;99.90;;;;;;5033791;28;20049;-57
2021/12/09 00:35:04;;;;;;;17.73;8.68;;;2.60;99.90;;;;;;5017786;28;20037;-57
2021/12/09 00:37:50;;;;;;;13.07;8.13;;;2.50;99.90;;;;;;5034032;28;20049;-58
2021/12/09 00:40:16;;;;;;;;;;;2.70;99.90;;;;;;5034507;28;20053;-57
2021/12/09 00:42:41;;;;;;;17.05;8.98;;;2.50;99.90;;;;;;5035236;28;19916;-58
2021/12/09 00:45:07;;;;;;;16.63;8.30;;;2.60;99.90;;;;;;5034164;28;20479;-58
2021/12/09 00:47:33;;;;;;;16.17;8.48;;;2.50;99.90;;;;;;5035018;28;20042;-57
2021/12/09 00:49:58;;;;;;;21.70;9.57;;;2.50;99.90;;;;;;5034682;28;20627;-58
2021/12/09 00:52:24;;;;;;;17.65;9.60;;;2.70;99.90;;;;;;5033470;28;20131;-57
2021/12/09 00:54:52;;;;;;;17.15;7.93;;;2.50;99.90;;;;;;5033557;28;20030;-59
2021/12/09 00:57:18;;;;;;;14.60;8.57;;;2.30;99.90;;;;;;5033458;28;20044;-57
2021/12/09 00:59:44;;;;;;;15.05;8.38;;;2.50;99.90;;;;;;5033488;28;20128;-58
2021/12/09 01:02:11;;;;;;;19.20;9.32;;;2.40;99.90;;;;;;5034899;28;20120;-56
2021/12/09 01:04:37;;;;;;;15.20;9.55;;;2.50;99.90;;;;;;5033304;28;20060;-58
2021/12/09 01:07:04;;;;;;;17.10;9.80;;;2.40;99.90;;;;;;5034602;28;20479;-58
2021/12/09 01:09:30;;;;;;;13.85;9.45;;;2.40;99.90;;;;;;5034399;28;20050;-60
2021/12/09 01:11:56;;;;;;;17.83;10.55;;;2.40;99.90;;;;;;5034517;28;20045;-58
2021/12/09 01:14:22;;;;;;;20.38;10.95;;;2.30;99.90;;;;;;5034646;28;20037;-63
2021/12/09 01:16:47;;;;;;;17.02;10.20;;;2.30;99.90;;;;;;5034547;28;20034;-63
2021/12/09 01:19:13;;;;;;;20.17;11.45;;;2.30;99.90;;;;;;5034240;28;20049;-63
2021/12/09 01:21:39;;;;;;;21.88;10.98;;;2.30;99.90;;;;;;5034337;28;20045;-62
2021/12/09 01:24:05;;;;;;;18.25;10.73;;;2.20;99.90;;;;;;5034374;28;20041;-62
2021/12/09 01:26:31;;;;;;;24.13;11.23;;;2.20;99.90;;;;;;5034387;28;20066;-62
2021/12/09 01:29:05;;;;;;;27.60;11.00;;;2.20;99.90;;;;;;5034335;28;20045;-63
2021/12/09 01:31:36;;;;;;;25.95;11.50;;;2.30;99.90;;;;;;5032911;28;20515;-63
2021/12/09 01:34:03;;;;;;;19.85;10.57;;;2.00;99.90;;;;;;5033962;28;20041;-62
2021/12/09 01:36:35;;;;;;;15.55;10.55;;;2.30;99.90;;;;;;5032752;28;20046;-62
2021/12/09 01:39:02;;;;;;;14.27;9.73;;;2.40;99.90;;;;;;5032824;28;20037;-63
2021/12/09 01:41:27;;;;;;;20.63;10.43;;;2.30;99.90;;;;;;5034124;28;20373;-63
2021/12/09 01:43:54;;;;;;;21.15;10.55;;;2.20;99.90;;;;;;5034025;28;20048;-63
2021/12/09 01:46:20;;;;;;;17.98;9.35;;;2.30;99.90;;;;;;5033851;28;20109;-62
2021/12/09 01:48:48;;;;;;;19.95;10.77;;;2.20;99.90;;;;;;5033564;28;20054;-62
2021/12/09 01:51:15;;;;;;;20.17;10.48;;;2.00;99.90;;;;;;5032489;28;20060;-63
2021/12/09 01:53:42;;;;;;;18.02;10.77;;;2.10;99.90;;;;;;5033863;28;20069;-63
2021/12/09 01:56:12;;;;;;;22.35;11.05;;;1.80;99.90;;;;;;5033692;28;20045;-63
2021/12/09 01:58:38;;;;;;;21.63;12.02;;;2.10;99.90;;;;;;5033822;28;20043;-63
2021/12/09 02:01:06;;;;;;;19.52;11.77;;;2.00;99.90;;;;;;5033750;28;20373;-63
2021/12/09 02:03:32;;;;;;;18.02;10.07;;;2.00;99.90;;;;;;5032509;28;20046;-63
2021/12/09 02:05:58;;;;;;;25.42;12.93;;;1.90;99.90;;;;;;5034023;28;20041;-63
2021/12/09 02:08:24;;;;;;;21.75;11.45;;;2.00;99.90;;;;;;5033969;28;20099;-63
2021/12/09 02:10:50;;;;;;;18.98;11.18;;;1.80;99.90;;;;;;5034301;28;20041;-63
2021/12/09 02:13:17;;;;;;;17.17;11.32;;;2.00;99.90;;;;;;5034000;28;20052;-63
2021/12/09 02:15:43;;;;;;;18.23;11.25;;;1.90;99.90;;;;;;5032333;28;20041;-63
2021/12/09 02:18:10;;;;;;;22.65;13.20;;;1.80;99.90;;;;;;5034144;28;20095;-63
2021/12/09 02:20:38;;;;;;;21.10;12.35;;;1.80;99.90;;;;;;5033999;28;20045;-63
2021/12/09 02:23:09;;;;;;;19.30;10.82;;;1.90;99.90;;;;;;5033978;28;20046;-62
2021/12/09 02:25:36;;;;;;;22.15;11.18;;;1.80;99.90;;;;;;5033653;28;20042;-59
2021/12/09 02:28:03;;;;;;;21.48;10.32;;;1.90;99.90;;;;;;5033283;28;20045;-58
2021/12/09 02:30:29;;;;;;;22.90;12.45;;;1.90;99.90;;;;;;5031861;28;20526;-59
2021/12/09 02:32:54;;;;;;;21.58;12.48;;;1.90;99.90;;;;;;5031991;28;20124;-58
2021/12/09 02:35:20;;;;;;;22.90;13.27;;;2.00;99.90;;;;;;5015742;28;20068;-59
2021/12/09 02:37:45;;;;;;;27.83;13.23;;;1.90;99.90;;;;;;5033296;28;20033;-59
2021/12/09 02:40:13;;;;;;;19.58;12.05;;;1.90;99.90;;;;;;5033157;28;20399;-57
2021/12/09 02:42:39;;;;;;;20.23;12.82;;;1.80;99.90;;;;;;5032094;28;20175;-57
2021/12/09 02:45:08;;;;;;;19.55;11.93;;;1.80;99.90;;;;;;5032051;28;20132;-58
2021/12/09 02:47:34;;;;;;;22.90;12.90;;;1.70;99.90;;;;;;5033108;28;20043;-59
2021/12/09 02:50:00;;;;;;;27.95;15.02;;;1.80;99.90;;;;;;5031441;28;20049;-59
2021/12/09 02:52:26;;;;;;;20.25;13.25;;;1.80;99.90;;;;;;5031689;28;20053;-57
2021/12/09 02:54:52;;;;;;;23.27;13.15;;;1.80;99.90;;;;;;5015543;28;20037;-58
2021/12/09 02:57:18;;;;;;;24.02;11.85;;;;;;;;;;5032919;28;20410;-61
2021/12/09 02:59:44;;;;;;;23.83;14.05;;;1.90;99.90;;;;;;5031567;28;20467;-60
2021/12/09 03:02:11;;;;;;;30.15;13.48;;;1.80;99.90;;;;;;5031662;28;20084;-58
2021/12/09 03:04:58;;;;;;;25.38;12.90;;;1.80;99.90;;;;;;5031589;28;20053;-58
2021/12/09 03:07:25;;;;;;;24.00;12.40;;;1.90;99.90;;;;;;5033152;28;20138;-58
2021/12/09 03:09:56;;;;;;;19.00;12.68;;;1.80;99.90;;;;;;5036681;28;20056;-58
2021/12/09 03:12:30;;;;;;;25.63;14.90;;;1.80;99.90;;;;;;5036824;28;20376;-58
2021/12/09 03:14:56;;;;;;;26.60;12.27;;;1.80;99.90;;;;;;5035404;28;20056;-58
2021/12/09 03:17:22;;;;;;;25.85;13.85;;;1.90;99.90;;;;;;5018842;28;20033;-59
2021/12/09 03:19:48;;;;;;;22.27;12.70;;;1.70;99.90;;;;;;5036647;28;20495;-58
2021/12/09 03:22:14;;;;;;;20.20;12.73;;;1.90;99.90;;;;;;5036452;28;20091;-57
2021/12/09 03:24:40;;;;;;;27.95;12.07;;;1.80;99.90;;;;;;5035372;28;20120;-58
2021/12/09 03:27:06;;;;;;;23.35;13.85;;;1.80;99.90;;;;;;5035407;28;20124;-58
2021/12/09 03:29:32;;;;;;;23.25;13.02;;;1.70;99.90;;;;;;5036199;28;20487;-59
2021/12/09 03:32:03;;;;;;;25.60;13.60;;;1.60;99.90;;;;;;5036240;28;20171;-58
2021/12/09 03:34:31;;;;;;;22.67;13.73;;;1.70;99.90;;;;;;5035293;28;20056;-58
2021/12/09 03:36:58;;;;;;;25.25;12.45;;;1.70;99.90;;;;;;5036274;28;20120;-58
2021/12/09 03:39:29;;;;;;;21.67;12.85;;;1.70;99.90;;;;;;5036112;28;20555;-58
2021/12/09 03:41:56;;;;;;;24.95;13.02;;;1.70;99.90;;;;;;5035124;28;20049;-58
2021/12/09 03:44:22;;;;;;;25.00;11.88;;;1.50;99.90;;;;;;5036935;28;20037;-58
2021/12/09 03:46:51;;;;;;;23.17;12.32;;;1.50;99.90;;;;;;5035073;28;20045;-59
2021/12/09 03:49:17;;;;;;;24.02;13.50;;;1.60;99.90;;;;;;5035887;28;20065;-59
2021/12/09 03:51:42;;;;;;;24.35;12.10;;;1.60;99.90;;;;;;5034587;28;20389;-58
2021/12/09 03:54:10;;;;;;;26.98;13.95;;;1.60;99.90;;;;;;5051312;28;20042;-59
2021/12/09 03:56:37;;;;;;;26.48;12.98;;;1.60;99.90;;;;;;5035923;28;20037;-60
2021/12/09 03:59:04;;;;;;;22.70;12.38;;;1.50;99.90;;;;;;5034585;28;20120;-57
2021/12/09 04:01:31;;;;;;;24.98;13.75;;;1.30;99.90;;;;;;5034539;28;20549;-59
2021/12/09 04:03:57;;;;;;;21.88;13.23;;;1.50;99.90;;;;;;5034368;28;20091;-58
2021/12/09 04:06:23;;;;;;;20.67;13.45;;;1.60;99.90;;;;;;5034362;28;20049;-58
2021/12/09 04:08:49;;;;;;;25.73;13.05;;;1.50;99.90;;;;;;5035810;28;20076;-58
2021/12/09 04:11:17;;;;;;;24.95;13.68;;;1.60;99.90;;;;;;5034167;28;20050;-58
2021/12/09 04:13:43;;;;;;;20.63;13.52;;;;;;;;;;5034290;28;20041;-58
2021/12/09 04:16:10;;;;;;;24.77;14.93;;;1.50;99.90;;;;;;5034381;28;20099;-58
2021/12/09 04:18:38;;;;;;;28.17;13.38;;;1.60;99.90;;;;;;5034016;28;20042;-56
2021/12/09 04:21:04;;;;;;;23.70;13.30;;;1.50;99.90;;;;;;5035631;28;20038;-58
2021/12/09 04:23:31;;;;;;;29.35;13.90;;;1.50;99.90;;;;;;5035545;28;20049;-58
2021/12/09 04:25:57;;;;;;;20.65;12.48;;;1.60;99.90;;;;;;5034319;28;20495;-58
2021/12/09 04:28:24;;;;;;;28.25;14.40;;;1.50;99.90;;;;;;5034010;28;20053;-58
2021/12/09 04:30:49;;;;;;;25.95;12.75;;;1.50;99.90;;;;;;5035397;28;20396;-58
2021/12/09 04:33:15;;;;;;;20.42;12.38;;;1.50;99.90;;;;;;5035057;28;20045;-58
2021/12/09 04:35:41;;;;;;;20.98;11.98;;;1.40;99.90;;;;;;5035304;28;20046;-58
2021/12/09 04:38:07;;;;;;;27.98;14.18;;;1.50;99.90;;;;;;5035296;28;20124;-59
2021/12/09 04:40:33;;;;;;;26.33;14.05;;;1.40;99.90;;;;;;5035035;28;20128;-58
2021/12/09 04:43:00;;;;;;;21.88;12.18;;;;;;;;;;5033825;28;20045;-60
2021/12/09 04:45:27;;;;;;;26.85;13.35;;;1.40;99.90;;;;;;5035278;28;20120;-58
2021/12/09 04:47:53;;;;;;;23.85;13.18;;;1.40;99.90;;;;;;5034853;28;20487;-58
2021/12/09 04:50:18;;;;;;;23.23;13.50;;;1.10;99.90;;;;;;5017064;28;20128;-58
2021/12/09 04:52:44;;;;;;;23.00;13.23;;;1.30;99.90;;;;;;5033893;28;20484;-58
2021/12/09 04:55:10;;;;;;;24.15;13.43;;;1.30;99.90;;;;;;5035137;28;20065;-56
2021/12/09 04:57:38;;;;;;;23.48;12.95;;;1.40;99.90;;;;;;5034936;28;20033;-60
2021/12/09 05:00:08;;;;;;;32.05;13.85;;;1.30;99.90;;;;;;5013682;28;20052;-58
2021/12/09 05:05:10;;;;;;;26.17;13.60;;;1.30;99.90;;;;;;5015046;28;20049;-59
2021/12/09 05:07:35;;;;;;;19.52;11.77;;;1.20;99.90;;;;;;5014964;28;20113;-56
2021/12/09 05:10:01;;;;;;;22.65;14.00;;;1.30;99.90;;;;;;5014790;28;20061;-58
2021/12/09 05:12:27;;;;;;;26.67;13.75;;;1.40;99.90;;;;;;5014903;28;20041;-58
2021/12/09 05:14:53;;;;;;;24.13;12.45;;;1.20;99.90;;;;;;5013575;28;20069;-58
2021/12/09 05:17:19;;;;;;;21.92;13.23;;;1.30;99.90;;;;;;5030047;28;20057;-58
2021/12/09 05:19:45;;;;;;;28.88;13.88;;;1.30;99.90;;;;;;5014764;28;20034;-62
2021/12/09 05:22:11;;;;;;;23.13;12.30;;;1.20;99.90;;;;;;5016425;28;20064;-63
2021/12/09 05:24:38;;;;;;;27.30;12.55;;;;;;;;;;5031489;28;20097;-62
2021/12/09 05:27:05;;;;;;;23.75;12.73;;;1.20;99.90;;;;;;5021897;28;20048;-63
2021/12/09 05:29:43;;;;;;;22.38;13.68;;;1.50;99.90;;;;;;5052034;28;20067;-63
2021/12/09 05:32:12;;;;;;;21.00;12.45;;;1.30;99.90;;;;;;5042770;28;20399;-63
2021/12/09 05:34:43;;;;;;;20.42;12.60;;;;;;;;;;5034690;28;20128;-62
2021/12/09 05:37:11;;;;;;;23.20;13.10;;;1.30;99.90;;;;;;5033680;28;20048;-62
2021/12/09 05:39:37;;;;;;;23.95;11.93;;;1.30;99.90;;;;;;5050324;28;20507;-63
2021/12/09 05:42:04;;;;;;;22.83;11.93;;;;;;;;;;5031256;28;20053;-62
2021/12/09 05:44:30;;;;;;;27.50;12.25;;;1.40;99.90;;;;;;5032835;28;20132;-63
2021/12/09 05:46:56;;;;;;;22.77;14.00;;;;;;;;;;5034423;28;20116;-63
2021/12/09 05:49:21;;;;;;;29.48;12.43;;;1.40;99.90;;;;;;5033920;28;20117;-63
2021/12/09 05:51:47;;;;;;;28.10;13.95;;;;;;;;;;5033843;28;20041;-63
2021/12/09 05:54:13;;;;;;;26.90;15.02;;;1.40;99.90;;;;;;5034419;28;20076;-63
2021/12/09 05:56:39;;;;;;;21.13;13.43;;;1.40;99.90;;;;;;5047103;28;20073;-63
2021/12/09 05:59:07;;;;;;;26.30;14.02;;;;;;;;;;5044016;28;20049;-63
2021/12/09 06:01:33;;;;;;;26.17;13.20;;;1.30;99.90;;;;;;5040042;28;20486;-62
2021/12/09 06:03:59;;;;;;;26.00;12.60;;;;;;;;;;5052505;28;20048;-63
2021/12/09 06:06:25;;;;;;;24.83;12.63;;;1.30;99.90;;;;;;5052544;28;20044;-63
2021/12/09 06:08:51;;;;;;;21.38;12.50;;;;;;;;;;5051717;28;20124;-62
2021/12/09 06:11:17;;;;;;;22.65;12.90;;;;;;;;;;5049855;28;20040;-62
2021/12/09 06:13:46;;;;;;;22.58;14.27;;;;;;;;;;5050321;28;20431;-63
2021/12/09 06:16:12;;;;;;;32.25;13.00;;;;;;;;;;5048817;28;20450;-62
2021/12/09 06:18:38;;;;;;;25.30;13.63;;;1.30;99.90;;;;;;5045740;28;20072;-62
2021/12/09 06:21:04;;;;;;;27.27;13.88;;;;;;;;;;5050063;28;20029;-61
2021/12/09 06:23:29;;;;;;;23.27;12.35;;;1.40;99.90;;;;;;5048294;28;20072;-63
2021/12/09 06:25:55;;;;;;;25.55;12.75;;;1.30;99.90;;;;;;5049627;28;20072;-63
2021/12/09 06:28:21;;;;;;;25.80;14.38;;;;;;;;;;5031728;28;20048;-61
2021/12/09 06:30:47;;;;;;;24.85;12.77;;;;;;;;;;5046597;28;20055;-62
2021/12/09 06:33:13;;;;;;;26.40;15.07;;;1.30;99.90;;;;;;5049557;28;20049;-63
2021/12/09 06:35:39;;;;;;;21.83;14.85;;;1.30;99.90;;;;;;5052204;28;20041;-62
2021/12/09 06:38:08;;;;;;;25.75;12.63;;;;;;;;;;5052255;28;20086;-62
2021/12/09 06:40:34;;;;;;;29.77;14.32;;;;;;;;;;5044282;28;20036;-61
2021/12/09 06:43:00;;;;;;;28.70;13.50;;;;;;;;;;5047807;28;20526;-62
2021/12/09 06:45:27;;;;;;;25.42;13.32;;;;;;;;;;5050623;28;20465;-62
2021/12/09 06:47:54;;;;;;;25.05;13.07;;;1.40;99.90;;;;;;5054267;28;20037;-62
2021/12/09 06:50:20;;;;;;;29.75;14.35;;;;;;;;;;5055480;28;20068;-62
2021/12/09 06:52:46;;;;;;;28.98;13.23;;;1.30;99.90;;;;;;5055356;28;20103;-61
2021/12/09 06:55:14;;;;;;;26.00;14.00;;;1.20;99.90;;;;;;5048009;28;20032;-61
2021/12/09 06:57:42;;;;;;;20.63;11.82;;;1.40;99.90;;;;;;5046249;28;20054;-61
2021/12/09 07:00:09;;;;;;;25.38;12.65;;;;;;;;;;5047432;28;20040;-61
2021/12/09 07:02:35;;;;;;;28.30;13.25;;;1.40;99.90;;;;;;5047296;28;20034;-62
2021/12/09 07:05:02;;;;;;;26.33;14.27;;;;;;;;;;5048373;28;20064;-62
2021/12/09 07:07:27;;;;;;;29.17;12.57;;;1.40;99.90;;;;;;5043151;28;20041;-62
2021/12/09 07:09:54;;;;;;;31.38;13.48;;;;;;;;;;5022157;28;20494;-62
2021/12/09 07:12:20;;;;;;;32.00;14.70;;;;;;;;;;5030226;28;20037;-62
2021/12/09 07:14:46;;;;;;;22.42;12.90;;;;;;;;;;5032957;28;20042;-62
2021/12/09 07:17:11;;;;;;;24.73;13.50;;;1.40;99.90;;;;;;5041602;28;20039;-62
2021/12/09 07:19:38;;;;;;;33.30;13.68;;;1.40;99.90;;;;;;5034911;28;20388;-63
2021/12/09 07:22:04;;;;;;;25.13;13.98;;;1.50;99.90;;;;;;5032792;28;20052;-62
2021/12/09 07:24:30;;;;;;;25.48;14.38;;;1.30;99.90;;;;;;5033075;28;20037;-63
2021/12/09 07:26:59;;;;;;;26.95;12.93;;;1.40;99.90;;;;;;5034949;28;20134;-62
2021/12/09 07:29:26;;;;;;;26.20;13.18;;;1.40;99.90;;;;;;5032646;28;20082;-63
2021/12/09 07:31:52;;;;;;;24.27;12.50;;;;;;;;;;5033144;28;20052;-63
2021/12/09 07:34:18;;;;;;;28.65;12.63;;;;;;;;;;5032337;28;20034;-62
2021/12/09 07:36:44;;;;;;;25.42;12.77;;;;;;;;;;5034123;28;20080;-62
2021/12/09 07:39:10;;;;;;;28.70;12.68;;;1.40;99.90;;;;;;5035008;28;20168;-62
2021/12/09 07:41:36;;;;;;;24.83;12.02;;;;;;;;;;5033701;28;20037;-63
2021/12/09 07:44:02;;;;;;;28.42;12.52;;;1.50;99.90;;;;;;5035204;28;20091;-63
2021/12/09 07:46:32;;;;;;;30.40;14.20;;;;;;;;;;5032909;28;20086;-63
2021/12/09 07:48:58;;;;;;;29.00;12.55;;;;;;;;;;5036092;28;20057;-62
2021/12/09 07:51:24;;;;;;;24.45;11.02;;;1.40;99.90;;;;;;5045428;28;20033;-62
2021/12/09 07:53:50;;;;;;;26.65;11.85;;;1.50;99.90;;;;;;5042633;28;20055;-63
2021/12/09 07:56:16;;;;;;;26.75;12.43;;;;;;;;;;5044291;28;20430;-63
2021/12/09 07:58:41;;;;;;;23.15;11.65;;;1.50;99.90;;;;;;5035433;28;20072;-63
2021/12/09 08:01:07;;;;;;;18.92;11.00;;;1.50;99.90;;;;;;5033711;28;20130;-63
2021/12/09 08:03:33;;;;;;;22.55;11.30;;;1.50;99.90;;;;;;5033471;28;20053;-63
2021/12/09 08:05:59;;;;;;;24.83;11.55;;;;;;;;;;5034793;28;20480;-62
2021/12/09 08:08:25;;;;;;;22.42;11.38;;;;;;;;;;5037459;28;20041;-63
2021/12/09 08:10:51;;;;;;;20.88;11.05;;;1.40;99.90;;;;;;5046028;28;20136;-63
2021/12/09 08:13:17;;;;;;;23.80;11.35;;;1.50;99.90;;;;;;5034496;28;20546;-63
2021/12/09 08:15:45;;;;;;;23.23;12.10;;;1.60;99.90;;;;;;5032678;28;20064;-63
2021/12/09 08:20:41;;;;;;;18.98;10.50;;;2.00;99.90;;;;;;5030149;28;20128;-63
2021/12/09 08:23:06;;;;;;;21.67;10.00;;;2.10;99.90;;;;;;5034407;28;20124;-63
2021/12/09 08:25:32;;;;;;;14.65;9.25;;;2.00;99.90;;;;;;5033967;28;20511;-63
2021/12/09 08:27:58;;;;;;;20.45;9.75;;;1.90;99.90;;;;;;5034711;28;20088;-63
2021/12/09 08:30:25;;;;;;;19.88;9.07;;;2.10;99.90;;;;;;5034332;28;20091;-63
2021/12/09 08:32:52;;;;;;;20.10;9.10;;;;;;;;;;5034311;28;20052;-63
2021/12/09 08:35:19;;;;;;;17.75;8.15;;;;;;;;;;5016261;28;20041;-62
2021/12/09 08:37:45;;;;;;;20.45;9.15;;;2.60;99.90;;;;;;5034186;28;20610;-63
2021/12/09 08:40:12;;;;;;;12.57;8.30;;;2.50;99.90;;;;;;5034401;28;20038;-63
2021/12/09 08:42:38;;;;;;;19.88;8.25;;;2.40;99.90;;;;;;5034414;28;20111;-63
2021/12/09 08:45:08;;;;;;;16.20;8.93;;;2.50;99.90;;;;;;5037482;28;20446;-62
2021/12/09 08:47:35;;;;;;;23.23;9.98;;;2.60;99.90;;;;;;5033328;28;20099;-63
2021/12/09 08:50:00;;;;;;;18.95;8.15;;;2.90;99.90;;;;;;5033705;28;20050;-63
2021/12/09 08:52:26;;;;;;;20.13;8.65;;;2.80;99.90;;;;;;5048208;28;20393;-63
2021/12/09 08:54:52;;;;;;;18.58;7.07;;;;;;;;;;5033611;28;20504;-63
2021/12/09 08:57:19;;;;;;;18.25;8.45;;;3.10;99.90;;;;;;5033530;28;20058;-63
2021/12/09 08:59:45;;;;;;;14.52;7.80;;;3.10;99.90;;;;;;5033394;28;20151;-63
2021/12/09 09:02:11;;;;;;;19.02;8.82;;;3.00;99.90;;;;;;5033448;28;20506;-63
2021/12/09 09:04:37;;;;;;;12.27;6.90;;;3.20;99.90;;;;;;5032768;28;20183;-63
2021/12/09 09:07:04;;;;;;;12.75;7.03;;;3.30;99.90;;;;;;5032674;28;20041;-63
2021/12/09 09:09:34;;;;;;;19.63;7.55;;;3.30;99.90;;;;;;5036434;28;20053;-63
2021/12/09 09:12:04;;;;;;;14.75;7.68;;;3.80;99.90;;;;;;5034844;28;20048;-63
2021/12/09 09:14:30;;;;;;;15.63;7.53;;;3.50;99.90;;;;;;5031874;28;20053;-64
2021/12/09 09:16:56;;;;;;;15.85;7.35;;;;;;;;;;5031491;28;20387;-64
2021/12/09 09:19:22;;;;;;;12.27;7.22;;;;;;;;;;5039511;28;20095;-64
2021/12/09 09:21:47;;;;;;;17.85;7.55;;;3.40;99.90;;;;;;5033409;28;20049;-64
2021/12/09 09:24:13;;;;;;;20.73;6.80;;;3.40;99.90;;;;;;5033322;28;20117;-64
2021/12/09 09:26:39;;;;;;;15.82;7.70;;;3.40;99.90;;;;;;5032914;28;20400;-64
2021/12/09 09:29:05;;;;;;;12.77;7.38;;;3.30;99.90;;;;;;5032763;28;20039;-63
2021/12/09 09:31:32;;;;;;;16.50;7.65;;;3.40;99.90;;;;;;5036640;28;20076;-64
2021/12/09 09:34:02;;;;;;;13.38;7.65;;;3.30;99.90;;;;;;5045670;28;20025;-62
2021/12/09 09:36:28;;;;;;;16.17;7.35;;;;;;;;;;5045785;28;20036;-61
2021/12/09 09:39:00;;;;;;;10.88;7.13;;;3.50;99.90;;;;;;5046946;28;20029;-64
2021/12/09 09:41:31;;;;;;;17.80;7.70;;;;;;;;;;5037870;28;20494;-63
2021/12/09 09:44:09;;;;;;;13.38;5.93;;;;;;;;;;5042661;28;20052;-63
2021/12/09 09:46:34;;;;;;;16.65;6.72;;;3.60;99.90;;;;;;5046131;28;20483;-63
2021/12/09 09:49:01;;;;;;;13.88;6.53;;;;;;;;;;5043683;28;20052;-64
2021/12/09 09:51:29;;;;;;;16.13;7.07;;;4.30;99.90;;;;;;5038459;28;20053;-64
2021/12/09 09:53:56;;;;;;;15.65;6.93;;;4.00;99.90;;;;;;5042758;28;20055;-63
2021/12/09 09:56:24;;;;;;;17.75;7.03;;;4.00;99.90;;;;;;5047000;28;20048;-64
2021/12/09 09:58:53;;;;;;;12.23;6.63;;;4.00;99.90;;;;;;5040018;28;20434;-65
2021/12/09 10:01:19;;;;;;;11.80;6.03;;;4.00;99.90;;;;;;5032754;28;20399;-63
2021/12/09 10:03:47;;;;;;;10.10;6.35;;;;;;;;;;5029634;28;20076;-62
2021/12/09 10:06:14;;;;;;;11.57;6.43;;;;;;;;;;5041488;28;20066;-63
2021/12/09 10:08:41;;;;;;;17.13;7.97;;;;;;;;;;5043007;28;20040;-63
2021/12/09 10:11:07;;;;;;;12.73;7.25;;;;;;;;;;5043744;28;20416;-63
2021/12/09 10:13:35;;;;;;;17.20;7.40;;;3.40;99.90;;;;;;5036479;28;20095;-62
2021/12/09 10:16:05;;;;;;;12.85;7.00;;;;;;;;;;5029710;28;20069;-62
2021/12/09 10:18:44;;;;;;;20.17;7.57;;;;;;;;;;5028004;28;20136;-62
2021/12/09 10:21:21;;;;;;;18.23;7.95;;;3.40;99.90;;;;;;5028043;28;20071;-62
2021/12/09 10:23:50;;;;;;;16.55;7.82;;;;;;;;;;5028041;28;20057;-62
2021/12/09 10:26:19;;;;;;;19.55;8.45;;;;;;;;;;5028146;28;20053;-62
2021/12/09 10:28:50;;;;;;;19.45;8.00;;;;;;;;;;5027611;28;20057;-62
2021/12/09 10:31:29;;;;;;;19.73;8.68;;;3.20;99.90;;;;;;5029250;28;20041;-62
2021/12/09 10:34:04;;;;;;;21.33;10.18;;;;;;;;;;5028077;28;20120;-62
2021/12/09 10:36:49;;;;;;;20.77;9.75;;;3.10;99.90;;;;;;5026352;28;20511;-62
2021/12/09 10:39:17;;;;;;;21.50;9.63;;;;;;;;;;5027493;28;20054;-62
2021/12/09 10:41:43;;;;;;;31.20;11.68;;;3.30;99.90;;;;;;5029027;28;20045;-62
2021/12/09 10:44:11;;;;;;;26.00;12.60;;;3.30;99.90;;;;;;5031775;28;20059;-63
2021/12/09 10:46:48;;;;;;;23.00;10.45;;;3.10;99.90;;;;;;5032240;28;20045;-63
2021/12/09 10:49:14;;;;;;;22.25;9.98;;;3.40;99.90;;;;;;5030208;28;20563;-62
2021/12/09 10:51:45;;;;;;;26.25;9.70;;;3.30;99.90;;;;;;5030243;28;20412;-63
2021/12/09 10:54:11;;;;;;;21.88;11.23;;;3.30;99.90;;;;;;5032193;28;20484;-63
2021/12/09 10:56:37;;;;;;;24.48;9.93;;;;;;;;;;5029497;28;20042;-62
2021/12/09 10:59:03;;;;;;;27.65;10.57;;;;;;;;;;5030813;28;20045;-62
2021/12/09 11:01:30;;;;;;;24.42;11.32;;;3.30;99.90;;;;;;5030517;28;20179;-62
2021/12/09 11:04:00;;;;;;;20.02;10.70;;;3.20;99.90;;;;;;5030637;28;20049;-62
2021/12/09 11:06:34;;;;;;;26.25;11.13;;;3.50;99.90;;;;;;5030831;28;20044;-62
2021/12/09 11:09:02;;;;;;;25.83;12.05;;;;;;;;;;5030170;28;20091;-62
2021/12/09 11:11:33;;;;;;;27.63;11.55;;;3.40;99.90;;;;;;5028839;28;20499;-62
2021/12/09 11:14:00;;;;;;;27.80;11.85;;;;;;;;;;5030538;28;20041;-62
2021/12/09 11:16:32;;;;;;;25.90;11.90;;;3.30;99.90;;;;;;5029111;28;20096;-62
2021/12/09 11:19:05;;;;;;;20.67;10.13;;;;;;;;;;5029749;28;20052;-62
2021/12/09 11:21:34;;;;;;;23.27;11.45;;;;;;;;;;5031605;28;20484;-62
2021/12/09 11:24:07;;;;;;;25.52;11.35;;;3.40;99.90;;;;;;5028895;28;20080;-62
2021/12/09 11:29:16;;;;;;;22.20;12.40;;;;;;;;;;5040725;28;20041;-63
2021/12/09 11:31:51;;;;;;;23.92;12.52;;;;;;;;;;5042954;28;20132;-63
2021/12/09 11:34:21;;;;;;;37.70;12.48;;;;;;;;;;5044134;28;20052;-64
2021/12/09 11:36:47;;;;;;;24.85;13.07;;;;;;;;;;5044448;28;20464;-64
2021/12/09 11:39:23;;;;;;;34.33;13.75;;;3.40;99.90;;;;;;5045080;28;20387;-63
2021/12/09 11:41:49;;;;;;;28.95;12.45;;;3.50;99.90;;;;;;5042731;28;20492;-62
2021/12/09 11:44:16;;;;;;;23.92;11.30;;;3.70;99.90;;;;;;5035039;28;20511;-62
2021/12/09 11:46:45;;;;;;;20.58;11.48;;;3.50;99.90;;;;;;5041595;28;20081;-62
2021/12/09 11:49:11;;;;;;;26.40;13.25;;;;;;;;;;5018344;28;20419;-63
2021/12/09 11:51:39;;;;;;;27.48;11.68;;;;;;;;;;5029388;28;20049;-62
2021/12/09 11:54:06;;;;;;;25.48;14.68;;;;;;;;;;5030960;28;20049;-63
2021/12/09 12:12:45;;;;;;;30.13;15.00;;;3.40;99.90;;;;;;5035746;28;20457;-63
2021/12/09 12:18:13;;;;;;;27.00;13.82;;;;;;;;;;5045335;28;20051;-63
2021/12/09 12:21:00;;;;;;;26.63;14.27;;;;;;;;;;5044694;28;20037;-63
2021/12/09 12:26:59;;;;;;;28.08;13.93;;;3.50;99.90;;;;;;5032578;28;20052;-63
2021/12/09 12:40:12;;;;;;;30.80;15.45;;;;;;;;;;5030134;28;20049;-63
2021/12/09 12:42:55;;;;;;;31.77;15.07;;;3.60;99.90;;;;;;5033005;28;20049;-63
2021/12/09 12:45:43;;;;;;;31.30;15.30;;;;;;;;;;5028932;28;20503;-63
2021/12/09 12:53:53;;;;;;;36.95;16.70;;;;;;;;;;5032945;28;20179;-63
2021/12/09 12:56:20;;;;;;;30.13;15.27;;;3.90;99.90;;;;;;5036103;28;20094;-63
2021/12/09 12:59:08;;;;;;;27.33;15.02;;;3.90;99.90;;;;;;5041669;28;20503;-63
2021/12/09 13:01:55;;;;;;;31.10;15.43;;;3.80;99.90;;;;;;5044505;28;20067;-63
2021/12/09 13:07:33;;;;;;;29.63;16.02;;;;;;;;;;5030819;28;20487;-63
2021/12/09 13:10:20;;;;;;;34.58;16.13;;;;;;;;;;5030639;28;20041;-63
2021/12/09 13:12:56;;;;;;;37.05;16.73;;;3.90;99.90;;;;;;5032701;28;20064;-63
2021/12/09 13:15:30;;;;;;;37.83;16.23;;;3.90;99.90;;;;;;5032464;28;20048;-63
2021/12/09 13:18:03;;;;;;;36.57;16.17;;;3.90;99.90;;;;;;5027641;28;20461;-63
2021/12/09 13:20:34;;;;;;;42.88;16.15;;;;;;;;;;5043822;28;20071;-63
2021/12/09 13:23:26;;;;;;;30.48;15.68;;;4.10;99.90;;;;;;5041881;28;20092;-63
2021/12/09 13:26:26;;;;;;;38.40;16.50;;;4.10;99.90;;;;;;5030281;28;20049;-63
2021/12/09 13:29:09;;;;;;;36.42;16.88;;;4.00;99.90;;;;;;5031235;28;20411;-63
2021/12/09 13:32:01;;;;;;;36.15;16.48;;;4.00;99.90;;;;;;5030440;28;20075;-63
2021/12/09 13:34:44;;;;;;;32.80;16.40;;;;;;;;;;5027578;28;20057;-63
2021/12/09 13:40:17;;;;;;;40.00;16.50;;;4.30;99.90;;;;;;5031406;28;20084;-63
2021/12/09 13:48:14;;;;;;;31.20;15.95;;;;;;;;;;5031757;28;20810;-62
2021/12/09 13:50:50;;;;;;;31.17;15.35;;;4.40;99.90;;;;;;5030914;28;20460;-63
2021/12/09 13:56:01;;;;;;;29.77;14.52;;;4.10;99.90;;;;;;5028544;28;20484;-63
2021/12/09 13:58:27;;;;;;;32.55;12.82;;;;;;;;;;5028587;28;20116;-63
2021/12/09 14:00:53;;;;;;;36.55;16.20;;;4.00;99.90;;;;;;5029461;28;20048;-63
2021/12/09 14:03:24;;;;;;;29.05;13.88;;;;;;;;;;5030428;28;20403;-63
2021/12/09 14:05:53;;;;;;;27.42;14.98;;;;;;;;;;5030746;28;20040;-63
2021/12/09 14:08:29;;;;;;;27.33;14.70;;;4.30;99.90;;;;;;5032145;28;20069;-63